Time;durP1;ratioP1;P1;durP2;ratioP2;P2;SDS_P1;SDS_P2;PMS_P1;PMS_P2;Temp;Humidity;BMP_temperature;BMP_pressure;BME280_temperature;BME280_humidity;BME280_pressure;Samples;Min_cycle;Max_cycle;Signal;HPM_P1;HPM_P2
2022/11/05 00:09:55;;;;;;;;;;;;;;;15.23;55.19;94779.84;5054516;28;1025;-59
2022/11/05 00:17:50;;;;;;;;;;;;;;;15.35;55.37;94787.38;5054177;28;1062;-59
2022/11/05 00:20:16;;;;;;;;;;;;;;;15.36;55.08;94787.16;5054179;28;1001;-59
2022/11/05 00:25:29;;;;;;;;;;;;;;;15.22;56.32;94778.19;5053876;28;1038;-59
2022/11/05 00:27:59;;;;;;;;;;;;;;;15.18;56.50;94785.00;5053480;28;1085;-59
2022/11/05 00:30:25;;;;;;;;;;;;;;;15.06;56.32;94785.75;5053919;28;1062;-59
2022/11/05 00:32:51;;;;;;;;;;;;;;;15.13;56.23;94784.75;5053875;28;1046;-59
2022/11/05 00:35:19;;;;;;;;;;;;;;;15.11;56.63;94783.28;5053879;28;1052;-58
2022/11/05 00:37:45;;;;;;;;;;;;;;;15.17;56.18;94780.63;5053737;28;1781;-59
2022/11/05 00:40:12;;;;;;;;;;;;;;;15.14;56.35;94783.75;5054235;28;1062;-59
2022/11/05 00:45:23;;;;;;;;;;;;;;;15.16;55.83;94770.09;5053697;28;1089;-59
2022/11/05 00:50:34;;;;;;;;;;;;;;;15.00;57.16;94774.72;5053559;28;1050;-59
2022/11/05 00:53:00;;;;;;;;;;;;;;;14.96;57.42;94767.25;5053541;28;1096;-59
2022/11/05 00:55:29;;;;;;;;;;;;;;;15.00;57.30;94774.72;5053541;28;1819;-59
2022/11/05 00:57:56;;;;;;;;;;;;;;;15.00;57.12;94765.81;5053524;28;1070;-59
2022/11/05 01:00:23;;;;;;;;;;;;;;;15.04;56.83;94764.41;5053437;28;1910;-59
2022/11/05 01:02:49;;;;;;;;;;;;;;;15.01;56.77;94762.13;5053439;28;1054;-59
2022/11/05 01:05:15;;;;;;;;;;;;;;;15.05;56.80;94767.94;5053629;28;970;-59
2022/11/05 01:07:41;;;;;;;;;;;;;;;15.00;56.93;94755.88;5053472;28;1242;-59
2022/11/05 01:10:07;;;;;;;;;;;;;;;15.06;57.04;94740.81;5053360;28;922;-59
2022/11/05 01:12:33;;;;;;;;;;;;;;;14.89;57.41;94744.84;5053376;28;1022;-59
2022/11/05 01:14:59;;;;;;;;;;;;;;;14.78;57.68;94746.25;5053297;28;1058;-59
2022/11/05 01:17:25;;;;;;;;;;;;;;;14.75;57.63;94736.69;5053279;28;1082;-59
2022/11/05 01:19:51;;;;;;;;;;;;;;;14.76;58.34;94732.13;5035838;28;967;-59
2022/11/05 01:22:17;;;;;;;;;;;;;;;14.70;58.10;94730.22;5053273;28;2004;-59
2022/11/05 01:24:44;;;;;;;;;;;;;;;14.66;58.27;94727.09;5053321;28;1025;-59
2022/11/05 01:27:10;;;;;;;;;;;;;;;14.59;58.45;94716.31;5052990;28;1329;-59
2022/11/05 01:29:36;;;;;;;;;;;;;;;14.61;58.25;94713.44;5053194;28;1028;-59
2022/11/05 01:32:02;;;;;;;;;;;;;;;14.55;58.49;94709.63;5053181;28;965;-59
2022/11/05 01:34:28;;;;;;;;;;;;;;;14.52;58.70;94693.06;5052971;28;974;-59
2022/11/05 01:36:54;;;;;;;;;;;;;;;14.54;58.52;94691.00;5053020;28;1061;-59
2022/11/05 01:39:20;;;;;;;;;;;;;;;14.50;58.81;94681.66;5054735;28;1805;-59
2022/11/05 01:41:46;;;;;;;;;;;;;;;14.42;58.91;94672.72;5057221;28;1907;-59
2022/11/05 01:44:35;;;;;;;;;;;;;;;14.47;58.78;94669.41;5057110;28;1029;-59
2022/11/05 01:47:01;;;;;;;;;;;;;;;14.43;58.88;94668.16;5049003;28;1206;-59
2022/11/05 01:49:30;;;;;;;;;;;;;;;13.99;59.27;94648.59;5056908;28;1042;-59
2022/11/05 01:51:57;;;;;;;;;;;;;;;13.92;59.46;94650.38;5057147;28;973;-59
2022/11/05 01:54:26;;;;;;;;;;;;;;;13.90;59.77;94655.13;5056890;28;1721;-59
2022/11/05 01:56:55;;;;;;;;;;;;;;;13.84;60.45;94653.22;5056888;28;1081;-59
2022/11/05 01:59:21;;;;;;;;;;;;;;;13.71;60.19;94645.88;5056672;28;1082;-59
2022/11/05 02:01:47;;;;;;;;;;;;;;;13.80;59.80;94647.41;5056638;28;1997;-59
2022/11/05 02:04:15;;;;;;;;;;;;;;;13.76;59.94;94642.63;5056888;28;1014;-58
2022/11/05 02:06:45;;;;;;;;;;;;;;;13.67;59.89;94650.78;5056847;28;990;-59
2022/11/05 02:09:17;;;;;;;;;;;;;;;13.48;60.37;94651.44;5056756;28;994;-59
2022/11/05 02:11:43;;;;;;;;;;;;;;;13.48;60.48;94654.13;5056603;28;1048;-59
2022/11/05 02:14:09;;;;;;;;;;;;;;;13.46;61.06;94654.31;5056573;28;1048;-59
2022/11/05 02:16:35;;;;;;;;;;;;;;;13.42;60.98;94653.03;5038790;28;1041;-59
2022/11/05 02:19:19;;;;;;;;;;;;;;;13.38;61.59;94659.00;5056664;28;970;-59
2022/11/05 02:21:54;;;;;;;;;;;;;;;13.45;62.16;94659.91;5056444;28;2007;-59
2022/11/05 02:24:35;;;;;;;;;;;;;;;13.52;61.15;94655.41;5056257;28;1105;-58
2022/11/05 02:27:21;;;;;;;;;;;;;;;13.63;60.75;94649.53;5056378;28;1262;-59
2022/11/05 02:30:16;;;;;;;;;;;;;;;13.54;60.57;94652.53;5045827;28;1284;-59
2022/11/05 02:33:01;;;;;;;;;;;;;;;13.36;61.57;94661.84;5002225;28;1315;-59
2022/11/05 02:35:53;;;;;;;;;;;;;;;13.28;61.96;94659.28;5056392;28;1049;-59
2022/11/05 02:38:35;;;;;;;;;;;;;;;13.25;62.18;94659.63;5032613;28;1220;-58
2022/11/05 02:41:07;;;;;;;;;;;;;;;13.18;61.92;94651.50;5056005;28;1911;-58
2022/11/05 02:43:33;;;;;;;;;;;;;;;13.18;61.75;94658.72;5056127;28;1016;-59
2022/11/05 02:46:16;;;;;;;;;;;;;;;13.13;61.87;94653.94;5056169;28;1053;-59
2022/11/05 02:48:48;;;;;;;;;;;;;;;13.10;62.20;94651.63;5055924;28;1109;-59
2022/11/05 02:51:20;;;;;;;;;;;;;;;13.21;62.36;94653.81;5055592;28;973;-59
2022/11/05 02:53:57;;;;;;;;;;;;;;;13.24;62.35;94652.59;5055736;28;1811;-59
2022/11/05 02:56:25;;;;;;;;;;;;;;;13.17;62.69;94654.41;5055990;28;1029;-59
2022/11/05 02:58:52;;;;;;;;;;;;;;;13.19;62.81;94653.16;5055884;28;974;-59
2022/11/05 03:01:18;;;;;;;;;;;;;;;13.23;62.34;94646.41;5037789;28;1938;-59
2022/11/05 03:03:44;;;;;;;;;;;;;;;13.18;62.66;94654.19;5055619;28;1074;-59
2022/11/05 03:06:10;;;;;;;;;;;;;;;13.09;62.89;94661.53;5055584;28;1045;-59
2022/11/05 03:08:38;;;;;;;;;;;;;;;13.00;63.07;94659.97;5055461;28;1113;-59
2022/11/05 03:11:12;;;;;;;;;;;;;;;12.88;63.25;94669.50;5055457;28;1114;-59
2022/11/05 03:13:46;;;;;;;;;;;;;;;13.04;62.80;94663.94;5055519;28;993;-59
2022/11/05 03:16:35;;;;;;;;;;;;;;;13.04;62.93;94672.00;5055471;28;1110;-59
2022/11/05 03:19:15;;;;;;;;;;;;;;;13.05;62.98;94683.53;5054958;28;1226;-59
2022/11/05 03:21:45;;;;;;;;;;;;;;;13.16;63.18;94690.28;5055339;28;1972;-59
2022/11/05 03:24:17;;;;;;;;;;;;;;;13.15;62.03;94685.97;5037751;28;979;-59
2022/11/05 03:26:43;;;;;;;;;;;;;;;12.97;62.63;94689.03;5055099;28;1231;-60
2022/11/05 03:29:12;;;;;;;;;;;;;;;13.02;62.25;94689.31;5055169;28;1034;-59
2022/11/05 03:31:40;;;;;;;;;;;;;;;12.95;62.27;94701.81;5037472;28;1062;-60
2022/11/05 03:34:07;;;;;;;;;;;;;;;12.80;63.22;94691.91;5055242;28;1001;-59
2022/11/05 03:36:40;;;;;;;;;;;;;;;12.67;63.52;94694.41;5037371;28;1034;-59
2022/11/05 03:39:09;;;;;;;;;;;;;;;12.74;62.96;94694.50;5037294;28;1523;-59
2022/11/05 03:41:38;;;;;;;;;;;;;;;12.77;63.36;94699.50;5054837;28;1906;-59
2022/11/05 03:44:05;;;;;;;;;;;;;;;12.82;63.22;94707.81;5054876;28;1017;-59
2022/11/05 03:46:37;;;;;;;;;;;;;;;12.87;62.94;94713.47;5054719;28;1130;-59
2022/11/05 03:49:04;;;;;;;;;;;;;;;12.67;63.78;94707.81;5054781;28;1129;-60
2022/11/05 03:51:37;;;;;;;;;;;;;;;12.63;63.74;94710.03;5054638;28;1054;-59
2022/11/05 03:54:04;;;;;;;;;;;;;;;12.70;63.73;94710.97;5037003;28;2106;-59
2022/11/05 03:56:38;;;;;;;;;;;;;;;12.63;63.82;94701.97;5054513;28;1164;-59
2022/11/05 03:59:06;;;;;;;;;;;;;;;12.48;64.62;94711.88;5054756;28;1059;-59
2022/11/05 04:01:32;;;;;;;;;;;;;;;12.54;63.88;94710.31;5053599;28;1989;-59
2022/11/05 04:03:58;;;;;;;;;;;;;;;12.52;64.27;94717.69;5054621;28;962;-60
2022/11/05 04:14:38;;;;;;;;;;;;;;;12.29;64.74;94719.44;5054184;28;1070;-59
2022/11/05 04:17:08;;;;;;;;;;;;;;;12.36;64.75;94721.41;5054279;28;994;-59
2022/11/05 04:25:09;;;;;;;;;;;;;;;12.52;65.06;94726.59;5054195;28;1044;-59
2022/11/05 04:27:35;;;;;;;;;;;;;;;12.54;65.26;94729.94;5053805;28;1272;-60
2022/11/05 04:30:17;;;;;;;;;;;;;;;12.61;65.01;94725.47;5053933;28;1034;-60
2022/11/05 04:32:55;;;;;;;;;;;;;;;12.56;65.40;94725.22;5054209;28;1044;-60
2022/11/05 04:35:21;;;;;;;;;;;;;;;12.71;64.75;94733.28;5053853;28;1029;-60
2022/11/05 04:37:47;;;;;;;;;;;;;;;12.72;65.32;94732.25;5053863;28;1441;-60
2022/11/05 04:40:13;;;;;;;;;;;;;;;12.68;65.94;94731.78;5053789;28;1108;-60
2022/11/05 04:42:39;;;;;;;;;;;;;;;12.75;66.17;94731.88;5053872;28;1914;-60
2022/11/05 04:45:06;;;;;;;;;;;;;;;12.70;66.50;94729.75;5053946;28;1013;-60
2022/11/05 04:47:32;;;;;;;;;;;;;;;12.74;65.81;94724.00;5053804;28;1054;-59
2022/11/05 04:49:58;;;;;;;;;;;;;;;12.63;65.90;94734.16;5053765;28;1005;-60
2022/11/05 04:52:24;;;;;;;;;;;;;;;12.70;65.47;94736.97;5053525;28;1046;-63
2022/11/05 04:54:50;;;;;;;;;;;;;;;12.49;66.16;94738.50;5053505;28;1806;-60
2022/11/05 04:57:16;;;;;;;;;;;;;;;12.53;66.11;94738.16;5053421;28;1050;-59
2022/11/05 04:59:42;;;;;;;;;;;;;;;12.60;64.52;94753.31;5053742;28;1041;-61
2022/11/05 05:02:08;;;;;;;;;;;;;;;12.48;64.74;94752.09;5035795;28;1980;-60
2022/11/05 05:04:34;;;;;;;;;;;;;;;12.39;65.35;94750.53;5035831;28;1026;-60
2022/11/05 05:07:00;;;;;;;;;;;;;;;12.33;65.75;94751.22;5053521;28;966;-60
2022/11/05 05:09:26;;;;;;;;;;;;;;;12.22;66.50;94761.38;5035678;28;1149;-59
2022/11/05 05:11:52;;;;;;;;;;;;;;;12.32;66.86;94760.31;5053268;28;1105;-59
2022/11/05 05:14:18;;;;;;;;;;;;;;;12.35;66.01;94763.47;5053338;28;978;-59
2022/11/05 05:16:44;;;;;;;;;;;;;;;12.37;65.95;94776.66;5035673;28;1017;-59
2022/11/05 05:19:10;;;;;;;;;;;;;;;12.47;65.80;94766.53;5053214;28;1030;-58
2022/11/05 05:21:40;;;;;;;;;;;;;;;12.55;65.87;94776.34;5053189;28;1985;-59
2022/11/05 05:24:13;;;;;;;;;;;;;;;12.56;65.96;94776.16;5053190;28;1632;-59
2022/11/05 05:26:43;;;;;;;;;;;;;;;12.69;65.38;94789.78;5035315;28;1473;-59
2022/11/05 05:29:09;;;;;;;;;;;;;;;12.81;64.88;94781.28;5053212;28;1002;-58
2022/11/05 05:31:36;;;;;;;;;;;;;;;12.60;65.72;94784.69;5035490;28;1002;-59
2022/11/05 05:34:03;;;;;;;;;;;;;;;12.69;65.59;94796.97;5053131;28;1041;-58
2022/11/05 05:36:29;;;;;;;;;;;;;;;12.75;65.72;94785.53;5053005;28;1102;-58
2022/11/05 05:38:55;;;;;;;;;;;;;;;12.93;65.69;94782.47;5035331;28;1538;-58
2022/11/05 05:41:21;;;;;;;;;;;;;;;13.00;65.57;94785.28;5053171;28;1991;-59
2022/11/05 05:43:48;;;;;;;;;;;;;;;13.05;65.34;94783.69;5035627;28;1037;-60
2022/11/05 05:46:15;;;;;;;;;;;;;;;12.99;66.00;94787.09;5053169;28;1025;-59
2022/11/05 05:48:41;;;;;;;;;;;;;;;13.02;65.35;94789.44;5053000;28;1101;-59
2022/11/05 05:51:09;;;;;;;;;;;;;;;13.11;65.06;94787.50;5053071;28;1036;-59
2022/11/05 05:53:35;;;;;;;;;;;;;;;13.35;64.85;94794.44;5052791;28;1209;-59
2022/11/05 05:56:02;;;;;;;;;;;;;;;13.54;64.83;94787.66;5052816;28;1875;-58
2022/11/05 05:58:35;;;;;;;;;;;;;;;13.76;64.34;94795.75;5053000;28;1029;-59
2022/11/05 06:01:06;;;;;;;;;;;;;;;14.05;63.56;94795.66;5052943;28;1993;-59
2022/11/05 06:03:32;;;;;;;;;;;;;;;14.45;61.64;94800.56;5052932;28;1001;-59
2022/11/05 06:06:02;;;;;;;;;;;;;;;14.79;60.84;94799.84;5052809;28;1009;-59
2022/11/05 06:08:29;;;;;;;;;;;;;;;15.01;60.62;94797.94;5053163;28;1036;-60
2022/11/05 06:10:55;;;;;;;;;;;;;;;15.19;60.22;94791.22;5052999;28;1052;-59
2022/11/05 06:13:21;;;;;;;;;;;;;;;15.47;59.58;94795.72;5052829;28;1065;-59
2022/11/05 06:15:47;;;;;;;;;;;;;;;15.69;59.80;94801.81;5052658;28;1030;-59
2022/11/05 06:18:13;;;;;;;;;;;;;;;16.00;58.68;94798.63;5052800;28;939;-60
2022/11/05 06:20:39;;;;;;;;;;;;;;;16.37;56.85;94799.97;5034812;28;1902;-60
2022/11/05 06:23:05;;;;;;;;;;;;;;;17.51;54.75;94795.31;5052934;28;1056;-59
2022/11/05 06:25:31;;;;;;;;;;;;;;;19.30;49.77;94797.13;5054310;28;1034;-60
2022/11/05 06:27:57;;;;;;;;;;;;;;;19.01;50.42;94793.22;5056163;28;1251;-59
2022/11/05 06:30:24;;;;;;;;;;;;;;;20.33;47.27;94795.47;5056352;28;978;-59
2022/11/05 06:32:50;;;;;;;;;;;;;;;21.05;45.83;94797.34;5056322;28;958;-60
2022/11/05 06:35:16;;;;;;;;;;;;;;;23.14;41.61;94810.03;5038442;28;1042;-60
2022/11/05 06:37:42;;;;;;;;;;;;;;;22.49;42.43;94797.72;5038303;28;1440;-60
2022/11/05 06:40:08;;;;;;;;;;;;;;;20.62;46.12;94793.00;5056357;28;1045;-59
2022/11/05 06:42:34;;;;;;;;;;;;;;;20.09;47.97;94781.84;5056030;28;1902;-60
2022/11/05 06:45:00;;;;;;;;;;;;;;;20.58;47.32;94781.78;5056142;28;1041;-60
2022/11/05 06:47:26;;;;;;;;;;;;;;;20.21;47.53;94776.44;5038321;28;1057;-59
2022/11/05 06:49:53;;;;;;;;;;;;;;;20.06;48.79;94768.72;5038267;28;1195;-59
2022/11/05 06:52:19;;;;;;;;;;;;;;;19.84;48.58;94765.69;5056056;28;1027;-59
2022/11/05 06:54:45;;;;;;;;;;;;;;;20.29;47.69;94759.00;5055702;28;1806;-59
2022/11/05 06:57:11;;;;;;;;;;;;;;;19.85;48.77;94756.47;5055904;28;977;-60
2022/11/05 06:59:38;;;;;;;;;;;;;;;20.76;47.06;94769.19;5055630;28;1077;-59
2022/11/05 07:02:04;;;;;;;;;;;;;;;23.87;40.57;94782.75;5055576;28;1913;-59
2022/11/05 07:04:31;;;;;;;;;;;;;;;26.41;35.78;94791.72;5055635;28;1061;-60
2022/11/05 07:07:00;;;;;;;;;;;;;;;27.60;33.81;94799.81;5055485;28;1070;-61
2022/11/05 07:09:27;;;;;;;;;;;;;;;28.90;31.97;94806.50;5055373;28;1401;-61
2022/11/05 07:11:53;;;;;;;;;;;;;;;26.99;34.23;94795.13;5055659;28;1005;-62
2022/11/05 07:14:19;;;;;;;;;;;;;;;26.08;35.17;94777.31;5055522;28;981;-61
2022/11/05 07:16:45;;;;;;;;;;;;;;;27.27;33.58;94787.50;5055527;28;1036;-63
2022/11/05 07:19:11;;;;;;;;;;;;;;;30.15;30.08;94808.75;5055411;28;996;-61
2022/11/05 07:21:37;;;;;;;;;;;;;;;31.23;28.45;94815.66;5055221;28;1894;-61
2022/11/05 07:24:03;;;;;;;;;;;;;;;29.78;29.73;94807.47;5037876;28;1070;-61
2022/11/05 07:26:29;;;;;;;;;;;;;;;28.88;30.84;94797.72;5055181;28;1092;-61
2022/11/05 07:28:55;;;;;;;;;;;;;;;27.73;31.94;94783.84;5055303;28;1097;-61
2022/11/05 07:31:21;;;;;;;;;;;;;;;26.02;33.83;94775.66;5055183;28;1089;-60
2022/11/05 07:33:47;;;;;;;;;;;;;;;25.50;35.10;94767.16;5055097;28;954;-60
2022/11/05 07:36:13;;;;;;;;;;;;;;;25.41;35.59;94760.53;5054330;28;969;-61
2022/11/05 07:38:39;;;;;;;;;;;;;;;26.30;34.14;94771.66;5037262;28;1824;-60
2022/11/05 07:41:05;;;;;;;;;;;;;;;28.29;31.04;94777.41;5055058;28;1988;-60
2022/11/05 07:43:31;;;;;;;;;;;;;;;29.66;28.95;94780.31;5054853;28;1030;-60
2022/11/05 07:45:58;;;;;;;;;;;;;;;27.54;31.87;94769.88;5054933;28;1013;-60
2022/11/05 07:48:24;;;;;;;;;;;;;;;24.73;35.79;94750.13;5054744;28;974;-59
2022/11/05 07:50:51;;;;;;;;;;;;;;;22.67;39.55;94732.13;5037081;28;989;-59
2022/11/05 07:53:19;;;;;;;;;;;;;;;21.43;41.92;94728.88;5054604;28;1058;-59
2022/11/05 07:55:45;;;;;;;;;;;;;;;21.89;41.63;94730.91;5054578;28;1697;-59
2022/11/05 07:58:11;;;;;;;;;;;;;;;22.45;40.30;94728.47;5054751;28;970;-59
2022/11/05 08:00:37;;;;;;;;;;;;;;;21.04;43.47;94725.03;5054543;28;1906;-59
2022/11/05 08:03:04;;;;;;;;;;;;;;;20.19;45.66;94715.31;5054486;28;1033;-59
2022/11/05 08:05:33;;;;;;;;;;;;;;;19.61;47.15;94720.22;5054657;28;1025;-60
2022/11/05 08:07:59;;;;;;;;;;;;;;;19.19;48.35;94708.44;5054428;28;1045;-59
2022/11/05 08:10:25;;;;;;;;;;;;;;;18.69;49.84;94709.31;5054530;28;1001;-59
2022/11/05 08:12:52;;;;;;;;;;;;;;;18.46;50.56;94710.75;5054453;28;1045;-59
2022/11/05 08:15:20;;;;;;;;;;;;;;;18.34;51.80;94715.22;5054248;28;1049;-59
2022/11/05 08:17:47;;;;;;;;;;;;;;;18.30;51.58;94719.41;5054163;28;1061;-58
2022/11/05 08:20:13;;;;;;;;;;;;;;;18.25;51.28;94720.09;5054076;28;1117;-59
2022/11/05 08:22:45;;;;;;;;;;;;;;;18.24;51.57;94723.00;5036533;28;1906;-59
2022/11/05 08:25:12;;;;;;;;;;;;;;;18.24;51.98;94723.81;5054214;28;982;-59
2022/11/05 08:27:38;;;;;;;;;;;;;;;18.48;51.60;94726.78;5053748;28;1246;-59
2022/11/05 08:30:05;;;;;;;;;;;;;;;18.50;51.60;94720.09;5053966;28;1117;-59
2022/11/05 08:32:31;;;;;;;;;;;;;;;18.41;51.81;94721.41;5053742;28;1054;-59
2022/11/05 08:34:57;;;;;;;;;;;;;;;18.31;51.69;94724.63;5053874;28;1046;-58
2022/11/05 08:37:23;;;;;;;;;;;;;;;18.22;52.08;94723.22;5053754;28;1128;-59
2022/11/05 08:39:49;;;;;;;;;;;;;;;18.16;53.13;94726.00;5036068;28;1164;-59
2022/11/05 08:42:16;;;;;;;;;;;;;;;18.18;52.57;94724.72;5053587;28;1910;-59
2022/11/05 08:44:42;;;;;;;;;;;;;;;18.21;52.46;94720.72;5053755;28;958;-58
2022/11/05 08:47:08;;;;;;;;;;;;;;;18.18;52.66;94722.00;5053450;28;1101;-59
2022/11/05 08:49:34;;;;;;;;;;;;;;;18.17;52.87;94725.75;5053512;28;1045;-59
2022/11/05 08:52:00;;;;;;;;;;;;;;;18.09;53.25;94723.31;5053773;28;1140;-59
2022/11/05 08:54:26;;;;;;;;;;;;;;;18.07;53.45;94715.41;5053318;28;1705;-59
2022/11/05 08:56:52;;;;;;;;;;;;;;;18.03;53.45;94711.47;5053625;28;992;-59
2022/11/05 08:59:18;;;;;;;;;;;;;;;17.96;54.13;94713.41;5053458;28;982;-58
2022/11/05 09:01:45;;;;;;;;;;;;;;;17.89;51.03;94712.59;5053294;28;1909;-59
2022/11/05 09:04:11;;;;;;;;;;;;;;;17.97;52.67;94719.66;5053594;28;1082;-59
2022/11/05 09:06:37;;;;;;;;;;;;;;;18.04;52.81;94715.00;5053505;28;978;-58
2022/11/05 09:09:03;;;;;;;;;;;;;;;18.08;51.73;94708.97;5053493;28;1001;-59
2022/11/05 09:11:29;;;;;;;;;;;;;;;18.06;51.86;94704.81;5053334;28;974;-59
2022/11/05 09:13:55;;;;;;;;;;;;;;;18.09;53.18;94705.19;5053345;28;1021;-59
2022/11/05 09:16:22;;;;;;;;;;;;;;;18.12;53.57;94701.25;5053114;28;993;-59
2022/11/05 09:18:49;;;;;;;;;;;;;;;18.20;46.82;94703.66;5053439;28;965;-59
2022/11/05 09:21:16;;;;;;;;;;;;;;;18.34;45.72;94712.50;5035568;28;1906;-59
2022/11/05 09:23:42;;;;;;;;;;;;;;;18.53;45.02;94700.72;5053348;28;951;-59
2022/11/05 09:26:09;;;;;;;;;;;;;;;18.68;45.01;94702.25;5053117;28;1115;-59
2022/11/05 09:28:35;;;;;;;;;;;;;;;18.78;45.49;94708.00;5052886;28;1328;-59
2022/11/05 09:31:04;;;;;;;;;;;;;;;18.79;44.86;94706.09;5053048;28;1035;-59
2022/11/05 09:33:30;;;;;;;;;;;;;;;18.76;43.60;94714.66;5053210;28;1033;-59
2022/11/05 09:35:58;;;;;;;;;;;;;;;18.73;43.48;94705.94;5053321;28;951;-60
2022/11/05 09:38:24;;;;;;;;;;;;;;;18.80;42.74;94705.03;5053050;28;1722;-59
2022/11/05 09:40:58;;;;;;;;;;;;;;;18.79;42.65;94692.56;5053103;28;1914;-65
2022/11/05 09:43:40;;;;;;;;;;;;;;;18.73;42.37;94700.53;5053011;28;1022;-59
2022/11/05 09:46:32;;;;;;;;;;;;;;;18.77;42.04;94691.97;5053336;28;993;-58
2022/11/05 09:49:04;;;;;;;;;;;;;;;18.75;41.23;94692.19;5050275;28;1114;-59
2022/11/05 09:51:31;;;;;;;;;;;;;;;18.83;41.60;94693.81;5052934;28;1028;-59
2022/11/05 09:53:58;;;;;;;;;;;;;;;18.87;41.42;94689.59;5052850;28;1764;-59
2022/11/05 09:56:29;;;;;;;;;;;;;;;18.90;41.80;94684.56;5053051;28;1057;-60
2022/11/05 09:58:58;;;;;;;;;;;;;;;18.87;43.98;94676.88;5052956;28;1066;-60
2022/11/05 10:01:27;;;;;;;;;;;;;;;18.92;45.53;94673.50;5056069;28;1910;-59
2022/11/05 10:03:55;;;;;;;;;;;;;;;18.98;46.35;94666.34;5056919;28;1037;-59
2022/11/05 10:06:23;;;;;;;;;;;;;;;19.00;46.72;94669.66;5056716;28;1065;-59
2022/11/05 10:09:01;;;;;;;;;;;;;;;19.03;46.51;94666.50;5056973;28;1005;-59
2022/11/05 10:11:30;;;;;;;;;;;;;;;19.02;47.24;94662.97;5056618;28;1041;-59
2022/11/05 10:14:05;;;;;;;;;;;;;;;18.91;47.96;94663.69;5056750;28;1041;-59
2022/11/05 10:16:34;;;;;;;;;;;;;;;18.92;47.41;94654.53;5056633;28;982;-59
2022/11/05 10:19:06;;;;;;;;;;;;;;;18.91;47.25;94651.00;5056530;28;1072;-59
2022/11/05 10:21:32;;;;;;;;;;;;;;;18.94;42.56;94652.44;5056577;28;1977;-59
2022/11/05 10:23:58;;;;;;;;;;;;;;;18.94;42.19;94652.44;5056591;28;953;-59
2022/11/05 10:26:28;;;;;;;;;;;;;;;18.94;41.75;94643.50;5056415;28;1029;-59
2022/11/05 10:28:54;;;;;;;;;;;;;;;19.01;41.80;94644.22;5056567;28;1065;-59
2022/11/05 10:31:21;;;;;;;;;;;;;;;19.05;42.06;94642.72;5038577;28;993;-59
2022/11/05 10:33:53;;;;;;;;;;;;;;;19.02;41.60;94640.47;5056207;28;1008;-59
2022/11/05 10:36:19;;;;;;;;;;;;;;;19.14;41.32;94641.34;5056145;28;1054;-59
2022/11/05 10:38:45;;;;;;;;;;;;;;;19.23;41.43;94644.59;5056050;28;1229;-59
2022/11/05 10:41:11;;;;;;;;;;;;;;;19.18;42.29;94648.00;5056003;28;1985;-59
2022/11/05 10:43:46;;;;;;;;;;;;;;;19.17;43.39;94643.63;5055970;28;1046;-59
2022/11/05 10:46:11;;;;;;;;;;;;;;;19.14;44.73;94641.34;5056043;28;1080;-59
2022/11/05 10:48:41;;;;;;;;;;;;;;;19.15;44.89;94643.03;5055896;28;1070;-59
2022/11/05 10:51:07;;;;;;;;;;;;;;;19.17;44.97;94640.91;5055899;28;1129;-59
2022/11/05 10:53:35;;;;;;;;;;;;;;;19.21;45.24;94639.41;5055790;28;1101;-59
2022/11/05 10:56:01;;;;;;;;;;;;;;;19.18;45.25;94636.31;5055899;28;2181;-59
2022/11/05 10:58:29;;;;;;;;;;;;;;;19.14;45.37;94625.09;5055793;28;1046;-59
2022/11/05 11:00:55;;;;;;;;;;;;;;;19.11;44.98;94628.28;5055564;28;1905;-59
2022/11/05 11:03:36;;;;;;;;;;;;;;;19.07;45.38;94635.22;5055619;28;1058;-59
2022/11/05 11:06:06;;;;;;;;;;;;;;;19.07;45.17;94627.91;5055805;28;1117;-59
2022/11/05 11:08:34;;;;;;;;;;;;;;;19.08;44.99;94623.28;5055616;28;907;-59
2022/11/05 11:11:09;;;;;;;;;;;;;;;19.07;44.53;94621.66;5055239;28;1120;-60
2022/11/05 11:13:57;;;;;;;;;;;;;;;19.02;45.21;94618.78;5055462;28;1220;-58
2022/11/05 11:16:25;;;;;;;;;;;;;;;18.99;45.20;94620.09;5055630;28;1155;-59
2022/11/05 11:18:55;;;;;;;;;;;;;;;19.03;44.60;94618.56;5055395;28;1046;-59
2022/11/05 11:21:22;;;;;;;;;;;;;;;19.02;45.22;94611.47;5055558;28;1999;-59
2022/11/05 11:23:54;;;;;;;;;;;;;;;19.05;45.38;94604.81;5055291;28;1209;-59
2022/11/05 11:26:22;;;;;;;;;;;;;;;19.08;44.60;94612.47;5055448;28;1336;-58
2022/11/05 11:28:56;;;;;;;;;;;;;;;19.04;44.06;94595.84;5037346;28;1182;-59
2022/11/05 11:31:24;;;;;;;;;;;;;;;19.08;44.31;94604.34;5055341;28;1069;-60
2022/11/05 11:33:58;;;;;;;;;;;;;;;19.13;43.86;94598.25;5055235;28;970;-59
2022/11/05 11:36:31;;;;;;;;;;;;;;;19.25;44.12;94594.53;5037369;28;1124;-58
2022/11/05 11:38:58;;;;;;;;;;;;;;;19.33;43.52;94592.56;5055261;28;1143;-59
2022/11/05 11:41:29;;;;;;;;;;;;;;;19.28;43.13;94588.66;5054847;28;1913;-59
2022/11/05 11:43:58;;;;;;;;;;;;;;;19.26;43.92;94585.34;5055039;28;1037;-58
2022/11/05 11:46:24;;;;;;;;;;;;;;;19.28;44.15;94577.81;5054835;28;1105;-58
2022/11/05 11:48:50;;;;;;;;;;;;;;;19.35;43.14;94590.44;5054832;28;1001;-58
2022/11/05 11:51:18;;;;;;;;;;;;;;;19.55;42.64;94593.72;5054981;28;997;-59
2022/11/05 11:53:46;;;;;;;;;;;;;;;19.74;40.25;94601.81;5054856;28;1693;-59
2022/11/05 11:56:17;;;;;;;;;;;;;;;19.89;40.48;94586.75;5054865;28;1052;-59
2022/11/05 11:58:51;;;;;;;;;;;;;;;19.98;39.02;94589.97;5054757;28;1053;-59
2022/11/05 12:01:32;;;;;;;;;;;;;;;20.05;40.35;94581.69;5054492;28;1906;-59
2022/11/05 12:04:10;;;;;;;;;;;;;;;20.05;38.36;94587.97;5036870;28;1133;-59
2022/11/05 12:06:55;;;;;;;;;;;;;;;20.06;37.92;94581.47;5054659;28;962;-59
2022/11/05 12:09:21;;;;;;;;;;;;;;;19.98;36.77;94579.13;5054546;28;981;-59
2022/11/05 12:11:53;;;;;;;;;;;;;;;20.01;36.46;94585.94;5054408;28;1062;-62
2022/11/05 12:14:19;;;;;;;;;;;;;;;20.05;36.71;94582.56;5036581;28;1069;-60
2022/11/05 12:16:45;;;;;;;;;;;;;;;20.11;35.86;94596.22;5054522;28;986;-60
2022/11/05 12:19:14;;;;;;;;;;;;;;;20.07;35.84;94593.16;5054445;28;1260;-59
2022/11/05 12:21:47;;;;;;;;;;;;;;;20.02;35.64;94593.88;5054327;28;2009;-60
2022/11/05 12:24:32;;;;;;;;;;;;;;;19.98;35.58;94581.81;5053679;28;1037;-59
2022/11/05 12:27:01;;;;;;;;;;;;;;;19.99;35.24;94588.88;5054148;28;1073;-60
2022/11/05 12:29:34;;;;;;;;;;;;;;;20.09;35.51;94586.44;5054249;28;1013;-59
2022/11/05 12:32:18;;;;;;;;;;;;;;;20.17;35.47;94585.28;5054133;28;1013;-59
2022/11/05 12:34:54;;;;;;;;;;;;;;;20.19;34.96;94588.56;5053993;28;1183;-60
2022/11/05 12:37:26;;;;;;;;;;;;;;;20.23;34.44;94591.66;5053960;28;1503;-59
2022/11/05 12:39:55;;;;;;;;;;;;;;;20.22;34.46;94581.84;5053892;28;998;-59
2022/11/05 12:42:30;;;;;;;;;;;;;;;20.19;34.64;94576.91;5053841;28;1993;-59
2022/11/05 12:45:12;;;;;;;;;;;;;;;20.28;34.61;94586.34;5053884;28;971;-59
2022/11/05 12:47:44;;;;;;;;;;;;;;;20.34;34.83;94582.69;5053743;28;997;-59
2022/11/05 12:50:14;;;;;;;;;;;;;;;20.39;34.41;94593.66;5036288;28;979;-59
2022/11/05 12:52:59;;;;;;;;;;;;;;;20.33;34.71;94591.88;5053874;28;1009;-59
2022/11/05 12:55:27;;;;;;;;;;;;;;;20.28;35.65;94581.75;5053587;28;1787;-59
2022/11/05 12:57:57;;;;;;;;;;;;;;;20.32;35.33;94590.25;5053469;28;1125;-59
2022/11/05 13:00:24;;;;;;;;;;;;;;;20.34;35.83;94577.25;5053719;28;1045;-59
2022/11/05 13:02:59;;;;;;;;;;;;;;;20.29;35.47;94583.38;5053403;28;1910;-59
2022/11/05 13:05:32;;;;;;;;;;;;;;;20.26;35.33;94583.88;5053412;28;1145;-59
2022/11/05 13:08:02;;;;;;;;;;;;;;;20.27;35.26;94584.69;5053602;28;1009;-59
2022/11/05 13:10:33;;;;;;;;;;;;;;;20.34;35.26;94579.97;5053364;28;1062;-59
2022/11/05 13:13:03;;;;;;;;;;;;;;;20.42;35.36;94587.75;5053687;28;983;-59
2022/11/05 13:15:38;;;;;;;;;;;;;;;20.42;35.70;94581.50;5035807;28;1097;-59
2022/11/05 13:18:09;;;;;;;;;;;;;;;20.36;35.45;94591.41;5053436;28;1014;-59
2022/11/05 13:20:37;;;;;;;;;;;;;;;20.38;35.01;94589.28;5053377;28;1088;-59
2022/11/05 13:23:05;;;;;;;;;;;;;;;20.35;34.77;94584.31;5053197;28;1987;-59
2022/11/05 13:25:34;;;;;;;;;;;;;;;20.41;34.82;94580.69;5053180;28;1128;-59
2022/11/05 13:31:47;;;;;;;;;;;;;;;20.37;34.48;94574.06;5048534;28;1375;-59
2022/11/05 13:34:13;;;;;;;;;;;;;;;20.28;34.58;94583.63;5054682;28;1257;-59
2022/11/05 13:39:35;;;;;;;;;;;;;;;20.39;35.15;94577.34;5037322;28;998;-59
2022/11/05 13:42:19;;;;;;;;;;;;;;;20.49;35.16;94576.78;5037215;28;1988;-59
2022/11/05 13:44:54;;;;;;;;;;;;;;;20.51;35.55;94585.53;5037237;28;1118;-58
2022/11/05 13:47:20;;;;;;;;;;;;;;;20.46;35.62;94579.97;5037240;28;934;-59
2022/11/05 13:49:54;;;;;;;;;;;;;;;20.44;34.56;94582.91;5037178;28;1058;-59